Time;durP1;ratioP1;P1;durP2;ratioP2;P2;SDS_P1;SDS_P2;PMS_P1;PMS_P2;Temp;Humidity;BMP_temperature;BMP_pressure;BME280_temperature;BME280_humidity;BME280_pressure;Samples;Min_cycle;Max_cycle;Signal;HPM_P1;HPM_P2
2022/05/02 00:00:01;;;;;;;7.80;3.70;;;;;;;10.33;57.81;101059.66;5004399;28;20030;-76
2022/05/02 00:02:26;;;;;;;6.70;3.47;;;;;;;10.29;57.30;101056.09;5005404;28;20477;-76
2022/05/02 00:04:51;;;;;;;6.05;3.25;;;;;;;10.27;57.96;101055.25;5004734;28;20042;-76
2022/05/02 00:07:17;;;;;;;6.30;3.13;;;;;;;10.25;57.59;101059.59;5006745;28;20168;-76
2022/05/02 00:09:43;;;;;;;6.25;3.60;;;;;;;10.23;57.52;101058.69;5003455;28;20039;-76
2022/05/02 00:12:09;;;;;;;5.63;3.20;;;;;;;10.27;57.52;101054.31;5003056;28;20452;-76
2022/05/02 00:14:35;;;;;;;6.57;3.60;;;;;;;10.26;57.58;101052.56;5005634;28;20269;-77
2022/05/02 00:17:00;;;;;;;5.88;3.60;;;;;;;10.23;57.86;101055.19;5005287;28;20058;-77
2022/05/02 00:19:26;;;;;;;7.30;3.33;;;;;;;10.21;58.21;101047.25;5004655;28;20030;-77
2022/05/02 00:21:51;;;;;;;6.25;3.20;;;;;;;10.20;57.68;101052.53;5010277;28;20049;-77
2022/05/02 00:24:16;;;;;;;4.80;2.83;;;;;;;10.19;57.57;101045.47;5006765;28;20052;-77
2022/05/02 00:26:42;;;;;;;5.93;3.10;;;;;;;10.16;58.04;101045.47;5000094;28;20050;-77
2022/05/02 00:29:07;;;;;;;6.43;3.22;;;;;;;10.16;58.35;101040.19;5008582;28;20049;-77
2022/05/02 00:31:33;;;;;;;6.53;3.20;;;;;;;10.16;57.99;101051.63;5009553;28;20023;-77
2022/05/02 00:33:59;;;;;;;7.38;3.45;;;;;;;10.18;57.72;101044.59;5006029;28;20456;-77
2022/05/02 00:36:25;;;;;;;5.05;2.95;;;;;;;10.16;58.11;101046.34;5008534;28;20064;-77
2022/05/02 00:38:50;;;;;;;6.57;4.30;;;;;;;10.00;59.33;101042.78;5007782;28;20408;-77
2022/05/02 00:41:16;;;;;;;6.25;3.45;;;;;;;9.92;58.88;101036.59;5005990;28;20117;-77
2022/05/02 00:43:42;;;;;;;5.10;3.30;;;;;;;9.85;58.69;101040.06;4995053;28;20038;-77
2022/05/02 00:46:22;;;;;;;7.53;2.97;;;;;;;9.82;59.19;101040.97;5003259;28;20040;-77
2022/05/02 00:48:47;;;;;;;5.85;3.25;;;;;;;9.73;59.27;101043.53;4999576;28;20045;-77
2022/05/02 00:51:14;;;;;;;4.95;3.03;;;;;;;9.64;59.15;101041.75;5003873;28;20034;-76
2022/05/02 00:53:41;;;;;;;5.28;3.22;;;;;;;9.60;59.11;101042.56;5004430;28;20034;-77
2022/05/02 00:56:06;;;;;;;7.65;3.13;;;;;;;9.56;59.70;101042.53;5003099;28;20026;-77
2022/05/02 00:58:34;;;;;;;7.07;3.40;;;;;;;9.50;60.13;101038.13;5002948;28;20084;-76
2022/05/02 01:01:00;;;;;;;6.97;4.18;;;;;;;9.43;60.36;101047.75;4999277;28;20383;-77
2022/05/02 01:03:26;;;;;;;6.53;3.13;;;;;;;9.35;60.89;101043.28;5005493;28;20128;-77
2022/05/02 01:08:37;;;;;;;7.13;3.95;;;;;;;9.10;62.68;101035.22;5000599;28;20180;-77
2022/05/02 01:11:03;;;;;;;8.98;3.50;;;;;;;9.07;63.10;101037.81;5004326;28;20068;-76
2022/05/02 01:13:41;;;;;;;5.88;3.53;;;;;;;9.11;62.77;101033.44;4999376;28;20058;-76
2022/05/02 01:16:25;;;;;;;10.25;4.13;;;;;;;9.08;62.87;101036.94;4999743;28;20041;-76
2022/05/02 01:18:53;;;;;;;8.55;3.97;;;;;;;9.06;62.96;101028.13;5002314;28;20042;-77
2022/05/02 01:21:21;;;;;;;7.63;4.07;;;;;;;9.08;62.60;101036.94;5005311;28;20451;-77
2022/05/02 01:23:49;;;;;;;6.93;3.97;;;;;;;9.09;62.01;101036.09;5011945;28;20408;-77
2022/05/02 01:26:15;;;;;;;9.40;3.50;;;;;;;9.10;61.97;101026.44;5003488;28;20049;-76
2022/05/02 01:28:41;;;;;;;4.30;2.95;;;;;;;9.11;62.10;101034.31;5005692;28;20489;-76
2022/05/02 01:31:06;;;;;;;7.45;3.70;;;;;;;9.07;62.54;101026.41;5002276;28;20069;-76
2022/05/02 01:33:33;;;;;;;8.30;4.32;;;;;;;9.07;62.28;101026.41;5005294;28;20048;-77
2022/05/02 01:35:59;;;;;;;6.70;3.90;;;;;;;9.03;63.08;101024.63;5003934;28;20045;-77
2022/05/02 01:38:24;;;;;;;7.40;4.25;;;;;;;9.03;63.26;101021.97;5003451;28;20137;-77
2022/05/02 01:40:50;;;;;;;5.57;4.03;;;;;;;9.04;62.82;101022.00;5005127;28;20180;-76
2022/05/02 01:43:15;;;;;;;6.60;4.22;;;;;;;9.07;62.97;101024.66;5001043;28;20042;-77
2022/05/02 01:45:40;;;;;;;8.25;4.45;;;;;;;9.04;62.96;101027.28;5007716;28;20041;-77
2022/05/02 01:48:06;;;;;;;7.78;4.57;;;;;;;8.99;63.33;101023.72;5007784;28;20120;-77
2022/05/02 01:50:31;;;;;;;7.15;4.30;;;;;;;8.90;63.24;101023.63;5005868;28;20118;-77
2022/05/02 01:52:57;;;;;;;6.43;3.90;;;;;;;8.80;63.48;101032.31;5005989;28;20042;-77
2022/05/02 01:55:22;;;;;;;8.15;4.40;;;;;;;8.72;63.96;101025.25;4997729;28;20026;-77
2022/05/02 01:57:47;;;;;;;6.57;3.55;;;;;;;8.72;63.91;101024.34;5019391;28;20038;-77
2022/05/02 02:00:13;;;;;;;5.60;3.90;;;;;;;8.67;64.25;101021.69;5007505;28;20116;-77
2022/05/02 02:02:41;;;;;;;6.30;4.40;;;;;;;8.65;64.03;101023.41;5002142;28;20123;-77
2022/05/02 02:07:51;;;;;;;7.95;4.00;;;;;;;8.53;64.32;101020.66;5008052;28;20026;-77
2022/05/02 02:10:16;;;;;;;7.43;3.53;;;;;;;8.52;64.76;101019.78;5004171;28;20048;-77
2022/05/02 02:12:41;;;;;;;5.88;3.55;;;;;;;8.51;65.05;101015.41;5001924;28;20567;-77
2022/05/02 02:15:08;;;;;;;7.43;4.13;;;;;;;8.49;64.95;101022.38;5003848;28;20117;-77
2022/05/02 02:17:33;;;;;;;7.57;4.47;;;;;;;8.47;65.00;101028.50;5003529;28;20026;-77
2022/05/02 02:19:58;;;;;;;6.60;3.90;;;;;;;8.46;65.39;101021.44;4993597;28;20489;-77
2022/05/02 02:22:24;;;;;;;6.85;3.90;;;;;;;8.48;64.97;101027.63;5005706;28;20052;-77
2022/05/02 02:24:50;;;;;;;6.22;4.20;;;;;;;8.46;65.30;101018.81;4999839;28;20049;-77
2022/05/02 02:27:15;;;;;;;7.38;4.10;;;;;;;8.46;65.16;101019.72;5003700;28;20030;-77
2022/05/02 02:29:41;;;;;;;10.35;4.35;;;;;;;8.49;64.82;101021.50;5004626;28;20056;-77
2022/05/02 02:32:07;;;;;;;7.47;3.85;;;;;;;8.48;64.85;101022.34;5004011;28;20049;-77
2022/05/02 02:34:32;;;;;;;8.55;4.15;;;;;;;8.43;65.01;101018.78;5004253;28;20030;-77
2022/05/02 02:36:57;;;;;;;6.40;3.47;;;;;;;8.35;65.20;101011.66;5004407;28;20068;-76
2022/05/02 02:39:23;;;;;;;4.88;3.67;;;;;;;8.31;64.92;101016.91;4999303;28;20508;-76
2022/05/02 02:41:48;;;;;;;9.05;4.30;;;;;;;8.26;65.87;101008.06;5002846;28;20037;-77
2022/05/02 02:44:14;;;;;;;7.65;4.80;;;;;;;8.16;66.33;101007.09;5002085;28;20112;-77
2022/05/02 02:46:39;;;;;;;8.65;4.07;;;;;;;8.11;66.02;101012.28;4995479;28;20057;-78
2022/05/02 02:49:04;;;;;;;6.68;3.78;;;;;;;8.13;66.62;101009.69;4999821;28;20049;-76
2022/05/02 02:51:29;;;;;;;6.07;4.20;;;;;;;8.11;66.55;100999.13;5003220;28;20037;-76
2022/05/02 02:53:55;;;;;;;7.38;4.03;;;;;;;8.13;66.70;101000.03;4991231;28;20050;-76
2022/05/02 02:56:20;;;;;;;10.85;4.47;;;;;;;8.12;67.34;100998.28;5002110;28;20091;-76
2022/05/02 02:58:46;;;;;;;7.53;4.30;;;;;;;8.17;66.95;100997.44;4993223;28;20042;-76
2022/05/02 03:01:11;;;;;;;8.30;4.18;;;;;;;8.21;67.18;100989.63;5000635;28;20932;-76
2022/05/02 03:03:37;;;;;;;8.30;4.15;;;;;;;8.22;67.33;100991.38;5003454;28;20044;-77
2022/05/02 03:06:02;;;;;;;7.72;4.35;;;;;;;8.23;66.84;100993.16;5000672;28;20041;-77
2022/05/02 03:08:29;;;;;;;6.10;3.65;;;;;;;8.23;66.77;100987.88;4996587;28;20469;-76
2022/05/02 03:10:55;;;;;;;7.05;3.90;;;;;;;8.17;66.55;100986.94;5001873;28;20453;-76
2022/05/02 03:13:21;;;;;;;5.80;4.00;;;;;;;8.14;66.81;100990.41;4999297;28;20094;-76
2022/05/02 03:15:47;;;;;;;6.68;4.63;;;;;;;8.15;67.07;100989.56;4997280;28;21055;-77
2022/05/02 03:18:12;;;;;;;6.72;4.00;;;;;;;8.15;66.61;100992.19;5003770;28;20045;-76
2022/05/02 03:20:38;;;;;;;8.50;4.03;;;;;;;8.12;66.78;100992.13;5000404;28;20145;-77
2022/05/02 03:23:03;;;;;;;5.90;3.78;;;;;;;8.07;67.06;100985.97;5003230;28;20035;-77
2022/05/02 03:25:28;;;;;;;6.45;4.30;;;;;;;8.07;66.95;100980.72;4998235;28;20409;-76
2022/05/02 03:27:54;;;;;;;10.00;4.68;;;;;;;8.04;67.09;100985.91;5001322;28;20063;-77
2022/05/02 03:30:19;;;;;;;7.85;4.50;;;;;;;8.00;67.09;100981.50;5002293;28;20089;-77
2022/05/02 03:32:44;;;;;;;5.82;4.00;;;;;;;7.97;67.72;100986.72;4999908;28;20038;-76
2022/05/02 03:35:10;;;;;;;7.47;4.15;;;;;;;7.96;67.59;100987.56;5003647;28;20069;-76
2022/05/02 03:37:36;;;;;;;6.35;4.28;;;;;;;7.97;67.78;100989.34;4999997;28;20034;-76
2022/05/02 03:40:02;;;;;;;6.70;4.57;;;;;;;7.92;67.65;100980.53;5002761;28;20034;-77
2022/05/02 03:42:27;;;;;;;8.55;4.25;;;;;;;7.89;67.81;100984.00;5009116;28;20116;-76
2022/05/02 03:44:52;;;;;;;7.13;4.43;;;;;;;7.82;68.21;100985.66;5001949;28;20049;-77
2022/05/02 03:47:18;;;;;;;9.70;4.07;;;;;;;7.82;68.47;100983.03;5002119;28;20113;-77
2022/05/02 03:49:44;;;;;;;7.85;4.68;;;;;;;7.85;69.11;100983.06;4997077;28;20501;-76
2022/05/02 03:52:09;;;;;;;7.05;4.68;;;;;;;7.87;68.99;100988.34;5003907;28;20412;-77
2022/05/02 03:54:34;;;;;;;15.63;7.50;;;;;;;7.86;68.96;100986.59;5008234;28;20030;-77
2022/05/02 03:57:00;;;;;;;8.85;5.55;;;;;;;7.89;68.86;100982.25;5004548;28;20034;-77
2022/05/02 03:59:25;;;;;;;8.98;4.80;;;;;;;7.92;69.02;100978.78;5003408;28;20031;-77
2022/05/02 04:01:51;;;;;;;8.45;4.55;;;;;;;7.98;69.18;100983.22;5002525;28;20048;-77
2022/05/02 04:04:16;;;;;;;7.60;4.45;;;;;;;8.03;68.98;100984.16;5004716;28;20038;-77
2022/05/02 04:06:41;;;;;;;10.45;4.63;;;;;;;8.06;68.60;100992.94;5001215;28;20030;-80
2022/05/02 04:09:07;;;;;;;7.82;4.65;;;;;;;8.14;68.50;100990.41;5013508;28;20496;-79
2022/05/02 04:11:32;;;;;;;7.13;4.75;;;;;;;8.22;68.06;100988.72;5018086;28;20041;-77
2022/05/02 04:13:58;;;;;;;14.65;5.05;;;;;;;8.29;68.03;100992.31;5003294;28;20033;-77
2022/05/02 04:16:23;;;;;;;14.77;6.95;;;;;;;8.33;67.57;100995.00;4994984;28;20038;-77
2022/05/02 04:18:49;;;;;;;12.13;8.10;;;;;;;8.40;67.30;100995.09;5000349;28;20137;-77
2022/05/02 04:21:14;;;;;;;9.48;6.88;;;;;;;8.46;67.11;100996.06;5007446;28;20065;-77
2022/05/02 04:23:40;;;;;;;11.32;7.32;;;;;;;8.49;67.23;100995.19;5005906;28;20041;-76
2022/05/02 04:26:05;;;;;;;11.15;7.40;;;;;;;8.49;66.91;100996.06;5008716;28;20554;-77
2022/05/02 04:28:31;;;;;;;51.90;31.77;;;;;;;8.52;66.77;101000.50;5000899;28;20046;-77
2022/05/02 04:30:56;;;;;;;23.30;14.43;;;;;;;8.53;66.80;100991.72;5003590;28;20026;-76
2022/05/02 04:33:22;;;;;;;11.02;8.10;;;;;;;8.52;66.63;100996.09;5005111;28;20045;-76
2022/05/02 04:35:47;;;;;;;8.63;5.15;;;;;;;8.52;66.85;100989.97;5005701;28;20036;-76
2022/05/02 04:38:12;;;;;;;8.35;4.90;;;;;;;8.53;67.17;100994.34;5003368;28;20025;-77
2022/05/02 04:40:38;;;;;;;9.35;4.90;;;;;;;8.60;67.11;100997.94;5005280;28;20396;-76
2022/05/02 04:43:03;;;;;;;7.60;4.60;;;;;;;8.66;66.93;100990.09;4996817;28;20468;-76
2022/05/02 04:45:29;;;;;;;9.60;4.97;;;;;;;8.74;66.95;100997.16;4994511;28;20038;-76
2022/05/02 04:47:55;;;;;;;7.82;4.65;;;;;;;8.84;65.81;100997.25;5002284;28;20120;-76
2022/05/02 04:50:20;;;;;;;8.77;5.97;;;;;;;8.96;65.85;100999.97;5018824;28;20037;-81
2022/05/02 04:52:45;;;;;;;9.68;7.05;;;;;;;9.05;65.67;100997.44;5011451;28;20037;-79
2022/05/02 04:55:11;;;;;;;11.90;7.07;;;;;;;9.10;65.87;100998.34;5013035;28;20037;-81
2022/05/02 04:57:36;;;;;;;13.13;8.68;;;;;;;9.16;65.38;101008.03;5010461;28;20057;-80
2022/05/02 05:00:03;;;;;;;9.63;6.68;;;;;;;9.24;65.42;100997.56;5012536;28;20065;-80
2022/05/02 05:02:28;;;;;;;17.23;12.68;;;;;;;9.27;65.23;100998.44;5009975;28;20045;-78
2022/05/02 05:04:53;;;;;;;13.80;8.48;;;;;;;9.35;64.98;101001.13;5006838;28;20041;-77
2022/05/02 05:07:19;;;;;;;10.77;7.00;;;;;;;9.46;64.82;100993.28;5008415;28;20034;-77
2022/05/02 05:09:44;;;;;;;10.57;6.30;;;;;;;9.56;64.50;101008.28;5011274;28;20038;-77
2022/05/02 05:12:26;;;;;;;8.77;5.32;;;;;;;9.69;64.17;100998.69;5004036;28;20030;-77
2022/05/02 05:18:35;;;;;;;9.05;5.82;;;;;;;9.87;63.43;101001.41;5006647;28;20034;-78
2022/05/02 05:21:22;;;;;;;10.95;5.68;;;;;;;9.97;62.95;100997.06;5009937;28;20033;-77
2022/05/02 05:24:06;;;;;;;11.95;7.75;;;;;;;10.06;62.15;100997.09;5009943;28;20128;-78
2022/05/02 05:26:53;;;;;;;12.38;8.43;;;;;;;10.22;62.40;100993.63;5006733;28;20381;-77
2022/05/02 05:29:25;;;;;;;13.52;8.90;;;;;;;10.34;61.64;100991.94;5011333;28;20066;-78
2022/05/02 05:32:18;;;;;;;11.65;8.55;;;;;;;10.48;60.96;100993.72;5007621;28;20049;-77
2022/05/02 05:34:46;;;;;;;12.85;8.10;;;;;;;10.60;61.27;100990.22;5011537;28;20053;-77
2022/05/02 05:37:30;;;;;;;12.60;9.30;;;;;;;10.67;61.17;100980.56;5009139;28;20038;-77
2022/05/02 05:40:20;;;;;;;11.52;7.80;;;;;;;10.82;60.64;100983.22;4994493;28;20042;-78
2022/05/02 05:43:23;;;;;;;9.65;6.45;;;;;;;10.90;60.36;100972.66;5007069;28;20065;-78
2022/05/02 05:46:04;;;;;;;8.05;4.70;;;;;;;11.01;59.94;100975.28;5000066;28;20073;-78
2022/05/02 05:48:47;;;;;;;12.73;5.25;;;;;;;11.06;59.77;100974.38;5006431;28;20136;-78
2022/05/02 05:51:22;;;;;;;24.77;6.40;;;;;;;11.18;59.33;100968.19;5004834;28;20038;-78
2022/05/02 05:54:24;;;;;;;26.77;6.05;;;;;;;11.26;60.36;100969.03;5009633;28;20504;-78
2022/05/02 05:57:24;;;;;;;13.57;4.80;;;;;;;11.33;59.66;100973.44;5009052;28;20101;-78
2022/05/02 06:00:03;;;;;;;7.63;4.82;;;;;;;11.39;60.35;100968.13;4997344;28;20040;-78
2022/05/02 06:03:02;;;;;;;7.65;4.25;;;;;;;11.48;60.28;100976.94;5004440;28;20054;-78
2022/05/02 06:05:28;;;;;;;10.68;5.82;;;;;;;11.59;60.80;100970.72;5000000;28;20045;-78
2022/05/02 06:07:55;;;;;;;9.32;5.43;;;;;;;11.71;60.13;100969.81;5009783;28;20022;-78
2022/05/02 06:10:24;;;;;;;7.60;5.28;;;;;;;11.82;60.04;100978.59;5007926;28;20041;-78
2022/05/02 06:12:50;;;;;;;10.00;6.10;;;;;;;11.90;59.37;100983.00;5021868;28;20088;-77
2022/05/02 06:20:45;;;;;;;6.32;4.00;;;;;;;12.18;58.60;100976.69;5010214;28;20069;-78
2022/05/02 06:23:15;;;;;;;8.82;4.93;;;;;;;12.30;58.14;100973.06;5007356;28;20038;-77
2022/05/02 06:25:45;;;;;;;9.18;5.75;;;;;;;12.43;57.83;100974.75;5006222;28;20057;-78
2022/05/02 06:28:11;;;;;;;8.05;4.55;;;;;;;12.53;57.45;100967.63;5023325;28;20045;-77
2022/05/02 06:30:39;;;;;;;9.43;5.20;;;;;;;12.63;56.75;100965.81;5023055;28;20497;-78
2022/05/02 06:33:11;;;;;;;7.47;4.63;;;;;;;12.69;56.74;100969.28;5011827;28;20058;-77
2022/05/02 06:35:50;;;;;;;5.90;3.90;;;;;;;12.73;55.89;100975.41;5008016;28;20445;-78
2022/05/02 06:38:32;;;;;;;7.15;4.80;;;;;;;12.74;55.83;100976.31;5002262;28;20494;-77
2022/05/02 06:41:14;;;;;;;8.10;4.80;;;;;;;12.81;56.10;100978.00;5007661;28;20066;-77
2022/05/02 06:43:44;;;;;;;7.30;4.23;;;;;;;12.84;56.04;100983.31;5007086;28;20034;-78
2022/05/02 06:46:28;;;;;;;7.82;3.90;;;;;;;12.94;55.21;100975.25;5007100;28;20289;-78
2022/05/02 06:49:02;;;;;;;8.25;5.45;;;;;;;13.07;55.45;100968.09;5008879;28;20092;-78
2022/05/02 06:51:35;;;;;;;8.73;4.25;;;;;;;13.16;55.08;100969.75;5018693;28;20042;-78
2022/05/02 06:54:10;;;;;;;6.72;4.18;;;;;;;13.28;55.02;100974.97;5006721;28;20061;-77
2022/05/02 06:56:42;;;;;;;9.63;5.18;;;;;;;13.47;54.55;100980.09;5010767;28;20046;-78
2022/05/02 06:59:17;;;;;;;7.97;5.65;;;;;;;13.61;53.60;100972.84;5007799;28;20048;-77
2022/05/02 07:01:49;;;;;;;9.10;5.68;;;;;;;13.75;53.47;100983.28;5008998;28;20038;-77
2022/05/02 07:04:52;;;;;;;12.60;6.15;;;;;;;13.83;53.33;100984.06;5015059;28;20038;-77
2022/05/02 07:07:30;;;;;;;16.50;10.55;;;;;;;13.90;53.95;100975.13;5005138;28;20025;-78
2022/05/02 07:10:27;;;;;;;10.50;7.55;;;;;;;14.04;53.03;100982.91;4997124;28;20353;-78
2022/05/02 07:13:01;;;;;;;18.33;11.05;;;;;;;14.16;53.37;100981.88;4989512;28;20050;-78
2022/05/02 07:15:40;;;;;;;18.52;11.55;;;;;;;14.33;53.08;100981.63;5002667;28;20049;-77
2022/05/02 07:18:08;;;;;;;17.30;12.25;;;;;;;14.50;51.83;100976.94;4997326;28;20429;-77
2022/05/02 07:20:45;;;;;;;14.65;9.65;;;;;;;14.57;51.61;100972.47;5009377;28;20041;-78
2022/05/02 07:23:29;;;;;;;13.77;9.90;;;;;;;14.65;51.75;100971.44;5004933;28;20034;-77
2022/05/02 07:26:06;;;;;;;14.32;10.30;;;;;;;14.80;51.48;100967.66;4995828;28;20070;-78
2022/05/02 07:28:52;;;;;;;10.70;7.45;;;;;;;14.96;50.53;100968.28;5002691;28;20390;-77
2022/05/02 07:31:24;;;;;;;11.85;8.82;;;;;;;15.06;50.14;100966.31;5004321;28;20444;-78
2022/05/02 07:33:52;;;;;;;13.50;8.20;;;;;;;15.13;50.03;100963.53;4992832;28;20038;-77
2022/05/02 07:36:19;;;;;;;10.93;8.80;;;;;;;15.22;49.90;100959.84;5006006;28;20034;-78
2022/05/02 07:38:49;;;;;;;14.73;9.25;;;;;;;15.38;49.80;100957.78;5013214;28;20042;-78
2022/05/02 07:41:25;;;;;;;13.40;10.07;;;;;;;15.55;48.75;100963.63;5005882;28;20062;-78
2022/05/02 07:43:56;;;;;;;13.73;8.93;;;;;;;15.73;48.59;100951.75;5005945;28;20049;-78
2022/05/02 07:46:39;;;;;;;14.52;9.27;;;;;;;15.93;47.86;100958.47;5002006;28;20072;-78
2022/05/02 07:49:05;;;;;;;;;;;;;;;16.04;47.47;100959.09;4995479;28;20044;-78
2022/05/02 07:51:31;;;;;;;13.88;9.00;;;;;;;16.16;47.23;100953.50;5003441;28;19989;-77
2022/05/02 07:53:59;;;;;;;13.00;6.95;;;;;;;16.28;45.87;100946.16;5005006;28;20109;-77
2022/05/02 07:56:27;;;;;;;10.30;7.15;;;;;;;16.37;46.00;100951.25;5006252;28;20034;-78
2022/05/02 07:58:54;;;;;;;12.20;8.23;;;;;;;16.43;45.96;100954.66;5007818;28;20022;-78
2022/05/02 08:01:23;;;;;;;8.75;4.15;;;;;;;16.50;45.61;100952.72;5008547;28;20046;-77
2022/05/02 08:03:50;;;;;;;8.88;4.88;;;;;;;16.50;45.08;100947.38;5005198;28;20042;-77
2022/05/02 08:06:27;;;;;;;9.35;5.43;;;;;;;16.54;45.25;100954.41;5008847;28;20038;-77
2022/05/02 08:09:11;;;;;;;7.25;4.80;;;;;;;16.59;44.86;100956.97;5000080;28;20042;-78
2022/05/02 08:11:59;;;;;;;11.05;6.40;;;;;;;16.72;44.51;100942.41;4996322;28;20463;-77
2022/05/02 08:14:36;;;;;;;10.32;5.65;;;;;;;16.80;43.83;100952.91;5003467;28;20045;-77
2022/05/02 08:17:07;;;;;;;9.52;6.15;;;;;;;16.91;43.62;100955.31;5006816;28;20034;-77
2022/05/02 08:20:06;;;;;;;9.88;7.45;;;;;;;17.05;43.08;100958.47;5007357;28;20416;-77
2022/05/02 08:28:58;;;;;;;12.55;4.53;;;;;;;17.29;42.40;100951.63;5008090;28;20413;-77
2022/05/02 08:31:41;;;;;;;8.77;5.88;;;;;;;17.41;42.40;100945.09;5007101;28;20042;-77
2022/05/02 08:34:44;;;;;;;9.65;6.32;;;;;;;17.56;41.69;100942.00;5012375;28;20131;-78
2022/05/02 08:37:43;;;;;;;6.75;4.78;;;;;;;17.65;41.93;100941.72;4995549;28;20088;-78
2022/05/02 08:40:24;;;;;;;11.48;7.28;;;;;;;17.74;41.79;100941.47;5006327;28;20122;-77
2022/05/02 08:43:15;;;;;;;7.90;5.70;;;;;;;17.79;41.20;100941.34;5000973;28;20117;-78
2022/05/02 08:46:21;;;;;;;7.28;4.78;;;;;;;17.90;41.26;100936.56;5005835;28;20069;-78
2022/05/02 08:52:04;;;;;;;8.98;3.67;;;;;;;18.07;41.01;100927.16;5007836;28;20045;-78
2022/05/02 08:55:09;;;;;;;9.52;6.75;;;;;;;18.15;39.85;100925.13;5003927;28;20045;-78
2022/05/02 08:58:18;;;;;;;9.48;4.43;;;;;;;18.18;39.94;100920.56;4950307;28;20181;-78
2022/05/02 09:01:05;;;;;;;6.45;4.00;;;;;;;18.26;39.92;100916.75;4971420;28;20336;-78
2022/05/02 09:04:03;;;;;;;9.60;5.70;;;;;;;18.44;39.85;100916.16;5008410;28;20030;-77
2022/05/02 09:07:12;;;;;;;9.27;6.68;;;;;;;18.57;39.90;100927.34;4996412;28;20038;-78
2022/05/02 09:09:51;;;;;;;24.85;10.20;;;;;;;18.76;39.65;100919.63;5011125;28;20038;-77
2022/05/02 09:12:35;;;;;;;17.88;8.82;;;;;;;18.91;39.25;100915.53;5005292;28;20080;-78
2022/05/02 09:15:31;;;;;;;27.27;11.02;;;;;;;18.88;38.32;100918.31;5006172;28;20481;-78
2022/05/02 09:18:30;;;;;;;16.70;8.23;;;;;;;18.80;37.55;100918.59;5008219;28;20681;-77
2022/05/02 09:20:56;;;;;;;10.80;6.00;;;;;;;18.91;37.07;100910.19;4998666;28;20412;-78
2022/05/02 09:23:32;;;;;;;11.15;6.90;;;;;;;18.80;37.26;100916.78;5010718;28;20042;-78
2022/05/02 09:26:07;;;;;;;16.05;5.60;;;;;;;19.02;36.08;100905.34;4986252;28;20042;-78
2022/05/02 09:28:48;;;;;;;10.55;5.68;;;;;;;19.11;35.87;100913.06;5004698;28;20516;-78
2022/05/02 09:31:16;;;;;;;8.65;5.55;;;;;;;19.15;36.37;100909.34;5005035;28;20539;-78
2022/05/02 09:34:06;;;;;;;7.30;4.97;;;;;;;19.11;35.42;100909.50;5012780;28;20497;-78
2022/05/02 09:36:43;;;;;;;7.60;3.15;;;;;;;18.98;35.48;100901.03;5008089;28;20045;-78
2022/05/02 09:39:30;;;;;;;4.03;2.30;;;;;;;18.87;35.39;100895.19;5009248;28;20034;-77
2022/05/02 09:42:14;;;;;;;5.72;3.55;;;;;;;18.93;35.97;100898.50;5008821;28;20034;-77
2022/05/02 09:49:33;;;;;;;6.75;3.10;;;;;;;18.97;34.51;100889.47;5009534;28;20513;-78
2022/05/02 09:51:52;;;;;;;6.35;3.47;;;;;;;19.13;35.18;100891.59;5007030;28;20137;-78
2022/05/02 09:57:42;;;;;;;8.63;5.03;;;;;;;19.59;34.69;100874.69;5008455;28;20026;-78
2022/05/02 10:03:07;;;;;;;9.27;6.05;;;;;;;19.99;33.33;100865.16;5004357;28;20409;-78
2022/05/02 10:05:39;;;;;;;10.00;6.03;;;;;;;20.09;33.32;100866.50;5010244;28;20049;-78
2022/05/02 10:08:41;;;;;;;5.40;3.22;;;;;;;19.89;32.18;100861.09;5006206;28;20042;-78
2022/05/02 10:11:20;;;;;;;8.30;5.53;;;;;;;20.00;33.43;100861.53;5009570;28;20910;-78
2022/05/02 10:14:15;;;;;;;6.72;3.63;;;;;;;19.93;32.85;100854.66;5013696;28;20513;-78
2022/05/02 10:16:55;;;;;;;7.00;5.82;;;;;;;19.92;33.29;100856.47;4997558;28;20035;-78
2022/05/02 10:19:49;;;;;;;10.68;4.35;;;;;;;20.05;32.09;100853.31;5005254;28;20061;-78
2022/05/02 10:22:21;;;;;;;8.07;5.63;;;;;;;20.11;33.17;100855.75;5006648;28;20070;-78
2022/05/02 10:25:11;;;;;;;9.77;6.72;;;;;;;20.34;32.49;100850.31;5009210;28;20042;-78
2022/05/02 10:28:03;;;;;;;6.70;4.00;;;;;;;20.56;31.38;100844.94;4999280;28;20069;-78
2022/05/02 10:30:40;;;;;;;5.30;2.88;;;;;;;20.42;32.63;100844.63;4999388;28;20061;-78
2022/05/02 10:33:13;;;;;;;6.32;3.20;;;;;;;20.44;32.59;100845.44;5005942;28;20042;-78
2022/05/02 10:35:44;;;;;;;7.38;5.22;;;;;;;20.50;32.86;100838.94;5007723;28;20100;-78
2022/05/02 10:38:18;;;;;;;7.40;5.00;;;;;;;20.77;32.05;100831.53;4995278;28;20033;-78
2022/05/02 10:40:45;;;;;;;8.60;5.72;;;;;;;20.80;32.46;100826.03;5009432;28;20092;-78
2022/05/02 10:43:21;;;;;;;8.52;5.88;;;;;;;21.08;32.34;100830.19;4998188;28;20053;-78
2022/05/02 10:45:48;;;;;;;7.38;5.32;;;;;;;21.34;32.32;100826.31;5005598;28;20071;-78
2022/05/02 10:48:23;;;;;;;9.07;5.90;;;;;;;21.60;32.34;100823.31;5008151;28;20057;-78
2022/05/02 10:51:40;;;;;;;8.50;6.97;;;;;;;21.88;31.34;100819.31;5011321;28;20037;-78
2022/05/02 10:54:28;;;;;;;11.82;7.18;;;;;;;21.73;30.70;100815.53;4966052;28;20045;-78
2022/05/02 10:56:59;;;;;;;5.93;3.83;;;;;;;21.43;30.52;100820.53;4999605;28;20042;-78
2022/05/02 10:59:29;;;;;;;7.55;5.28;;;;;;;21.40;31.37;100812.63;5009763;28;20057;-78
2022/05/02 11:02:12;;;;;;;7.38;5.10;;;;;;;21.58;30.47;100803.72;5016810;28;20406;-78
2022/05/02 11:05:03;;;;;;;12.02;5.68;;;;;;;21.75;30.90;100794.88;4997826;28;20109;-78
2022/05/02 11:07:53;;;;;;;21.73;10.40;;;;;;;21.97;31.62;100796.50;5006769;28;20037;-78
2022/05/02 11:10:21;;;;;;;18.13;7.32;;;;;;;22.07;30.58;100787.03;5006222;28;20069;-78
2022/05/02 11:13:04;;;;;;;7.53;3.10;;;;;;;21.67;30.37;100791.69;5003179;28;20057;-78
2022/05/02 11:15:43;;;;;;;9.73;6.60;;;;;;;21.70;30.11;100791.53;4999832;28;20034;-78
2022/05/02 11:21:40;;;;;;;17.25;7.60;;;;;;;21.88;30.74;100785.25;5005019;28;20401;-78
2022/05/02 11:24:13;;;;;;;26.63;10.85;;;;;;;22.05;30.86;100784.41;5016774;28;20041;-78
2022/05/02 11:26:45;;;;;;;11.75;7.18;;;;;;;22.17;29.92;100774.00;4994190;28;20100;-78
2022/05/02 11:29:21;;;;;;;7.53;5.40;;;;;;;22.17;30.68;100772.19;5026000;28;20081;-78
2022/05/02 11:31:57;;;;;;;6.68;5.97;;;;;;;22.66;29.59;100772.38;5001561;28;20042;-78
2022/05/02 11:34:23;;;;;;;6.55;4.78;;;;;;;22.73;29.34;100764.84;5013569;28;20667;-78
2022/05/02 11:36:55;;;;;;;8.27;5.68;;;;;;;23.16;29.12;100771.50;5029009;28;20034;-78
2022/05/02 11:39:24;;;;;;;;;;;;;;;23.61;28.32;100763.63;5011366;28;20038;-78
2022/05/02 11:41:52;;;;;;;5.28;2.70;;;;;;;23.54;28.16;100756.84;5014638;28;19913;-78
2022/05/02 11:44:18;;;;;;;5.90;3.67;;;;;;;23.60;28.33;100757.34;5018849;28;20092;-78
2022/05/02 11:47:06;;;;;;;8.48;4.93;;;;;;;23.70;27.46;100759.53;5014551;28;20038;-78
2022/05/02 11:49:46;;;;;;;6.40;2.78;;;;;;;23.31;26.89;100747.38;5020080;28;20030;-78
2022/05/02 11:52:18;;;;;;;4.55;3.20;;;;;;;22.90;28.59;100739.72;5013252;28;20114;-79
2022/05/02 11:54:51;;;;;;;8.32;6.55;;;;;;;22.96;28.91;100742.09;5013741;28;20034;-78
2022/05/02 11:57:38;;;;;;;6.15;3.92;;;;;;;23.56;27.38;100742.34;5010663;28;20126;-78
2022/05/02 12:00:05;;;;;;;8.77;6.07;;;;;;;24.13;28.17;100736.38;5012991;28;20034;-79
2022/05/02 12:02:37;;;;;;;10.55;4.38;;;;;;;24.53;26.40;100733.16;5016288;28;20045;-79
2022/05/02 12:05:23;;;;;;;8.15;5.95;;;;;;;24.86;26.20;100725.66;5018955;28;20049;-79
2022/05/02 12:08:06;;;;;;;5.25;2.90;;;;;;;24.92;26.01;100730.66;5016305;28;20101;-78
2022/05/02 12:10:39;;;;;;;6.15;3.28;;;;;;;24.95;25.05;100726.03;5022767;28;20030;-78
2022/05/02 12:13:10;;;;;;;7.88;2.63;;;;;;;24.95;25.27;100715.25;5017081;28;20113;-79
2022/05/02 12:15:53;;;;;;;7.70;5.53;;;;;;;25.27;25.94;100715.91;5023763;28;20101;-79
2022/05/02 12:18:18;;;;;;;8.07;4.85;;;;;;;25.77;25.41;100717.97;5015420;28;20030;-79
2022/05/02 12:20:52;;;;;;;8.30;4.50;;;;;;;26.31;24.82;100718.94;5018300;28;20139;-79
2022/05/02 12:23:20;;;;;;;9.88;6.63;;;;;;;25.99;24.76;100708.44;5017262;28;20044;-79
2022/05/02 12:25:54;;;;;;;4.90;3.50;;;;;;;25.24;24.94;100711.56;5013703;28;20407;-78
2022/05/02 12:28:42;;;;;;;6.53;3.17;;;;;;;25.05;24.66;100711.00;5011453;28;20153;-79
2022/05/02 12:31:15;;;;;;;7.20;6.32;;;;;;;24.18;26.97;100717.22;5005093;28;20034;-78